Airport ID:KO69
Update Time (UTC):28/01/2020 14:44
Wind Speed (Knots):3
Wind Direction (Magnetic):60
Temperature (°C):11
Dew Point (°C):11
Humidity (%):100
Altimeter (inHg):30.34
Density Altitude (Feet):
Visibility (Miles):10+
Clouds (Hundreds of feet):FEW006 BKN012 OVC019
Present Weather:
METAR:METAR KO69 281440Z AUTO 07003KT 9SM FEW006 BKN012 OVC019 11/11 A3034 RMK A01

The data displayed is for advisory purposes only and is not to be used for flight planning or operations.

This page is not automatically refreshed. Reload the page to see current data.